Terminal Aerodrome Forecast
Issued by NWS

Home | Current Version | Previous Version | Text Only | Print | Product List | Glossary On
Versions: 1 2 3 4 5 6 7 8 9 10 11 12 13
000
FTUS42 TJSJ 312335
TAFKPK
TAF
TKPK 312335Z 0100/0124 07010KT P6SM FEW020
     FM011300 07015G25KT P6SM FEW022
      AMD NOT SKED 0102/0111=

USA.gov is the U.S. government's official web portal to all federal, state and local government web resources and services.